createdAt,value
2018-03-26T00:01:05.292Z,70.27
2018-03-26T00:03:32.890Z,64.13
2018-03-26T00:06:00.442Z,65.60
2018-03-26T00:08:28.035Z,59.40
2018-03-26T00:10:55.575Z,65.13
2018-03-26T00:13:23.139Z,64.87
2018-03-26T00:15:51.505Z,61.67
2018-03-26T00:18:19.059Z,61.87
2018-03-26T00:20:46.749Z,70.53
2018-03-26T00:23:14.301Z,64.70
2018-03-26T00:25:41.839Z,60.47
2018-03-26T00:28:09.422Z,62.43
2018-03-26T00:30:36.966Z,66.43
2018-03-26T00:33:04.575Z,61.47
2018-03-26T00:35:32.166Z,59.23
2018-03-26T00:37:59.765Z,61.57
2018-03-26T00:40:27.393Z,57.97
2018-03-26T00:42:54.939Z,55.27
2018-03-26T00:45:22.490Z,63.57
2018-03-26T00:47:50.084Z,57.07
2018-03-26T00:50:17.634Z,59.60
2018-03-26T00:52:46.044Z,55.37
2018-03-26T00:55:13.607Z,57.63
2018-03-26T00:57:41.200Z,56.30
2018-03-26T01:00:08.795Z,55.90
2018-03-26T01:02:36.682Z,54.70
2018-03-26T01:05:04.695Z,51.43
2018-03-26T01:07:32.704Z,47.87
2018-03-26T01:10:00.246Z,54.23
2018-03-26T01:12:27.800Z,44.23
2018-03-26T01:14:55.901Z,52.27
2018-03-26T01:17:23.448Z,47.17
2018-03-26T01:19:52.463Z,45.90
2018-03-26T01:22:20.311Z,42.37
2018-03-26T01:24:47.882Z,45.30
2018-03-26T01:27:15.488Z,43.30
2018-03-26T01:29:43.625Z,42.33
2018-03-26T01:32:11.185Z,46.50
2018-03-26T01:34:38.768Z,44.37
2018-03-26T01:37:06.821Z,42.07
2018-03-26T01:39:35.130Z,44.10
2018-03-26T01:42:03.103Z,48.03
2018-03-26T01:44:30.683Z,42.60
2018-03-26T01:46:58.266Z,51.40
2018-03-26T01:49:25.824Z,52.77
2018-03-26T01:51:53.417Z,50.07
2018-03-26T01:54:21.779Z,47.93
2018-03-26T01:56:50.064Z,52.53
2018-03-26T01:59:18.139Z,47.10
2018-03-26T02:01:45.693Z,55.03
2018-03-26T02:04:13.415Z,49.53
2018-03-26T02:06:40.973Z,42.73
2018-03-26T02:09:08.909Z,42.17
2018-03-26T02:11:37.362Z,39.60
2018-03-26T02:14:04.973Z,33.17
2018-03-26T02:16:32.807Z,36.13
2018-03-26T02:19:00.360Z,33.20
2018-03-26T02:21:28.594Z,35.37
2018-03-26T02:23:56.178Z,32.53
2018-03-26T02:26:23.724Z,35.67
2018-03-26T02:28:51.281Z,37.27
2018-03-26T02:31:19.242Z,36.87
2018-03-26T02:33:46.793Z,35.87
2018-03-26T02:36:14.794Z,33.17
2018-03-26T02:38:43.276Z,29.40
2018-03-26T02:41:11.473Z,28.17
2018-03-26T02:43:39.016Z,29.70
2018-03-26T02:46:06.572Z,30.60
2018-03-26T02:48:34.312Z,31.57
2018-03-26T02:51:01.866Z,31.57
2018-03-26T02:53:29.451Z,27.03
2018-03-26T02:55:57.077Z,31.30
2018-03-26T02:58:24.655Z,34.27
2018-03-26T03:00:52.260Z,34.77
2018-03-26T03:03:19.804Z,32.03
2018-03-26T03:05:47.361Z,38.53
2018-03-26T03:08:14.957Z,29.53
2018-03-26T03:10:42.548Z,32.17
2018-03-26T03:13:10.100Z,30.47
2018-03-26T03:15:37.698Z,35.37
2018-03-26T03:18:05.263Z,31.20
2018-03-26T03:20:32.866Z,31.37
2018-03-26T03:23:00.924Z,31.13
2018-03-26T03:25:28.516Z,31.63
2018-03-26T03:27:56.099Z,29.87
2018-03-26T03:30:24.558Z,29.87
2018-03-26T03:32:52.158Z,29.67
2018-03-26T03:35:20.289Z,26.27
2018-03-26T03:37:47.894Z,27.27
2018-03-26T03:40:15.444Z,26.50
2018-03-26T03:42:43.536Z,27.50
2018-03-26T03:45:11.080Z,30.00
2018-03-26T03:47:38.668Z,26.70
2018-03-26T03:50:06.223Z,29.30
2018-03-26T03:52:33.830Z,33.90
2018-03-26T03:55:02.011Z,31.50
2018-03-26T03:57:29.628Z,29.60
2018-03-26T03:59:57.471Z,32.63
2018-03-26T04:02:25.012Z,37.30
2018-03-26T04:04:52.609Z,28.33
2018-03-26T04:07:20.680Z,32.77
2018-03-26T04:09:48.334Z,31.57
2018-03-26T04:12:15.881Z,32.37
2018-03-26T04:14:43.755Z,32.40
2018-03-26T04:17:11.347Z,34.23
2018-03-26T04:19:38.895Z,35.10
2018-03-26T04:22:06.733Z,34.33
2018-03-26T04:24:34.324Z,35.73
2018-03-26T04:27:01.870Z,34.53
2018-03-26T04:29:29.499Z,34.40
2018-03-26T04:31:57.049Z,36.07
2018-03-26T04:34:24.604Z,37.43
2018-03-26T04:36:52.233Z,35.47
2018-03-26T04:39:19.793Z,33.53
2018-03-26T04:41:47.628Z,35.90
2018-03-26T04:44:15.230Z,34.30
2018-03-26T04:46:42.833Z,29.90
2018-03-26T04:49:10.435Z,32.93
2018-03-26T04:51:38.032Z,31.13
2018-03-26T04:54:05.583Z,34.77
2018-03-26T04:56:33.174Z,33.97
2018-03-26T04:59:00.733Z,32.33
2018-03-26T05:01:28.452Z,28.90
2018-03-26T05:03:56.007Z,34.85
2018-03-26T05:06:23.568Z,45.67
2018-03-26T05:08:51.154Z,27.85
2018-03-26T05:11:19.535Z,27.47
2018-03-26T05:13:47.112Z,32.43
2018-03-26T05:16:15.532Z,39.33
2018-03-26T05:18:43.175Z,35.50
2018-03-26T05:21:11.162Z,28.80
2018-03-26T05:23:39.317Z,43.05
2018-03-26T05:26:06.910Z,38.30
2018-03-26T05:28:34.523Z,46.03
2018-03-26T05:31:02.107Z,51.17
2018-03-26T05:33:29.663Z,57.47
2018-03-26T05:35:57.389Z,51.60
2018-03-26T05:38:25.324Z,50.97
2018-03-26T05:40:53.510Z,46.03
2018-03-26T05:43:21.336Z,54.00
2018-03-26T05:45:48.923Z,43.23
2018-03-26T05:48:18.036Z,43.00
2018-03-26T05:50:45.640Z,39.83
2018-03-26T05:53:13.196Z,43.13
2018-03-26T05:55:41.024Z,39.57
2018-03-26T05:58:08.792Z,39.33
2018-03-26T06:00:36.344Z,44.15
2018-03-26T06:03:04.592Z,32.33
2018-03-26T06:05:32.720Z,40.15
2018-03-26T06:08:00.544Z,35.57
2018-03-26T06:10:28.105Z,38.67
2018-03-26T06:12:55.755Z,36.70
2018-03-26T06:15:23.317Z,35.13
2018-03-26T06:17:50.941Z,39.13
2018-03-26T06:20:18.960Z,38.10
2018-03-26T06:22:46.961Z,36.80
2018-03-26T06:25:14.816Z,36.13
2018-03-26T06:27:42.381Z,36.47
2018-03-26T06:30:11.295Z,37.03
2018-03-26T06:32:38.908Z,34.03
2018-03-26T06:35:06.472Z,41.47
2018-03-26T06:40:34.175Z,35.55
2018-03-26T06:43:01.934Z,38.53
2018-03-26T06:45:29.865Z,42.57
2018-03-26T06:47:57.409Z,35.53
2018-03-26T06:50:25.160Z,42.23
2018-03-26T06:52:53.156Z,51.33
2018-03-26T06:55:20.741Z,43.63
2018-03-26T06:57:49.227Z,45.33
2018-03-26T07:00:17.425Z,41.80
2018-03-26T07:02:45.018Z,45.87
2018-03-26T07:05:12.736Z,45.27
2018-03-26T07:07:40.399Z,52.50
2018-03-26T07:10:07.972Z,57.93
2018-03-26T07:12:36.485Z,42.63
2018-03-26T07:15:03.386Z,39.63
2018-03-26T07:17:31.166Z,44.43
2018-03-26T07:20:10.533Z,43.95
2018-03-26T07:22:38.436Z,42.47
2018-03-26T07:25:07.004Z,43.63
2018-03-26T07:27:36.011Z,46.10
2018-03-26T07:30:04.601Z,50.20
2018-03-26T07:32:32.275Z,52.47
2018-03-26T07:34:59.932Z,48.72
2018-03-26T07:37:27.531Z,49.17
2018-03-26T07:39:55.151Z,46.45
2018-03-26T07:42:22.744Z,51.83
2018-03-26T07:44:50.379Z,71.07
2018-03-26T07:47:18.227Z,65.57
2018-03-26T07:49:45.793Z,52.63
2018-03-26T07:52:13.385Z,45.60
2018-03-26T07:54:40.991Z,44.20
2018-03-26T07:57:09.506Z,52.13
2018-03-26T07:59:37.943Z,55.43
2018-03-26T08:02:07.397Z,46.00
2018-03-26T08:04:35.728Z,36.67
2018-03-26T08:07:04.232Z,38.67
2018-03-26T08:09:31.849Z,37.97
2018-03-26T08:11:59.414Z,36.90
2018-03-26T08:14:27.017Z,48.10
2018-03-26T08:16:54.892Z,39.97
2018-03-26T08:19:22.649Z,37.53
2018-03-26T08:21:50.199Z,34.97
2018-03-26T08:24:17.799Z,29.13
2018-03-26T08:26:47.124Z,30.12
2018-03-26T08:29:15.444Z,27.33
2018-03-26T08:31:43.048Z,31.40
2018-03-26T08:34:10.735Z,32.17
2018-03-26T08:36:38.310Z,31.23
2018-03-26T08:39:05.904Z,27.33
2018-03-26T08:41:34.409Z,28.47
2018-03-26T08:44:02.020Z,25.83
2018-03-26T08:46:29.577Z,28.00
2018-03-26T08:48:57.538Z,32.97
2018-03-26T08:51:25.139Z,25.55
2018-03-26T08:53:52.741Z,23.93
2018-03-26T08:56:20.368Z,22.15
2018-03-26T08:58:48.034Z,24.87
2018-03-26T09:01:15.828Z,23.20
2018-03-26T09:03:43.645Z,24.77
2018-03-26T09:06:11.245Z,24.13
2018-03-26T09:08:39.395Z,24.80
2018-03-26T09:11:06.997Z,21.70
2018-03-26T09:13:34.558Z,21.57
2018-03-26T09:16:02.231Z,22.73
2018-03-26T09:18:29.812Z,22.83
2018-03-26T09:20:57.378Z,24.43
2018-03-26T09:23:24.978Z,25.43
2018-03-26T09:25:52.553Z,27.13
2018-03-26T09:28:20.181Z,29.73
2018-03-26T09:30:47.771Z,29.00
2018-03-26T09:33:15.380Z,28.57
2018-03-26T09:35:43.024Z,26.00
2018-03-26T09:38:10.572Z,32.33
2018-03-26T09:40:38.282Z,27.00
2018-03-26T09:43:05.839Z,28.93
2018-03-26T09:45:33.441Z,26.77
2018-03-26T09:48:01.050Z,34.50
2018-03-26T09:50:29.445Z,31.37
2018-03-26T09:52:57.058Z,26.33
2018-03-26T09:55:25.499Z,32.30
2018-03-26T09:57:53.136Z,33.97
2018-03-26T10:00:26.603Z,35.70
2018-03-26T10:02:56.094Z,31.80
2018-03-26T10:05:23.990Z,34.88
2018-03-26T10:07:51.588Z,57.80
2018-03-26T10:10:19.196Z,37.77
2018-03-26T10:12:46.826Z,31.93
2018-03-26T10:15:14.432Z,36.13
2018-03-26T10:17:42.040Z,39.95
2018-03-26T10:20:09.612Z,45.67
2018-03-26T10:22:37.240Z,31.30
2018-03-26T10:25:05.440Z,33.77
2018-03-26T10:27:33.309Z,34.57
2018-03-26T10:30:00.904Z,34.22
2018-03-26T10:32:28.938Z,34.83
2018-03-26T10:34:57.406Z,36.33
2018-03-26T10:37:25.021Z,35.20
2018-03-26T10:39:53.165Z,38.88
2018-03-26T10:42:21.605Z,31.50
2018-03-26T10:44:49.627Z,38.17
2018-03-26T10:47:18.009Z,34.38
2018-03-26T10:49:47.251Z,33.30
2018-03-26T10:52:14.817Z,32.40
2018-03-26T10:54:43.097Z,31.67
2018-03-26T10:57:11.463Z,31.87
2018-03-26T10:59:39.610Z,33.00
2018-03-26T11:02:08.217Z,33.77
2018-03-26T11:04:36.025Z,36.87
2018-03-26T11:07:05.021Z,36.47
2018-03-26T11:09:32.980Z,89.43
2018-03-26T11:12:00.588Z,226.20
2018-03-26T11:14:28.163Z,156.15
2018-03-26T11:16:56.273Z,53.50
2018-03-26T11:19:23.944Z,71.62
2018-03-26T11:21:51.501Z,54.40
2018-03-26T11:24:20.892Z,46.13
2018-03-26T11:26:48.706Z,44.97
2018-03-26T11:29:16.316Z,44.10
2018-03-26T11:31:43.886Z,50.92
2018-03-26T11:34:11.480Z,48.10
2018-03-26T11:36:39.051Z,49.83
2018-03-26T11:39:06.751Z,47.67
2018-03-26T11:41:34.346Z,47.03
2018-03-26T11:44:02.606Z,50.17
2018-03-26T11:46:31.179Z,42.47
2018-03-26T11:48:59.847Z,42.20
2018-03-26T11:51:27.472Z,40.07
2018-03-26T11:53:55.041Z,40.13
2018-03-26T11:56:22.648Z,44.93
2018-03-26T11:58:50.516Z,41.80
2018-03-26T12:01:18.274Z,42.37
2018-03-26T12:03:45.884Z,35.17
2018-03-26T12:06:14.196Z,37.73
2018-03-26T12:08:42.480Z,42.67
2018-03-26T12:11:12.774Z,36.00
2018-03-26T12:13:40.894Z,42.90
2018-03-26T12:16:08.538Z,35.93
2018-03-26T12:18:36.113Z,41.93
2018-03-26T12:21:03.754Z,41.63
2018-03-26T12:23:42.881Z,43.07
2018-03-26T12:26:10.480Z,37.67
2018-03-26T12:28:49.825Z,38.37
2018-03-26T12:31:18.102Z,43.10
2018-03-26T12:33:57.488Z,39.53
2018-03-26T12:36:25.180Z,41.30
2018-03-26T12:38:52.749Z,45.27
2018-03-26T12:41:20.729Z,45.58
2018-03-26T12:43:49.049Z,48.65
2018-03-26T12:46:28.783Z,45.10
2018-03-26T12:48:57.028Z,45.70
2018-03-26T12:51:36.788Z,42.67
2018-03-26T12:54:06.524Z,45.83
2018-03-26T12:56:34.719Z,47.08
2018-03-26T12:59:03.624Z,44.53
2018-03-26T13:01:43.586Z,48.67
2018-03-26T13:04:11.871Z,40.17
2018-03-26T13:06:41.060Z,52.70
2018-03-26T13:09:09.654Z,48.85
2018-03-26T13:11:39.318Z,49.43
2018-03-26T13:14:07.625Z,42.20
2018-03-26T13:16:36.618Z,44.73
2018-03-26T13:19:05.144Z,43.67
2018-03-26T13:21:35.539Z,44.05
2018-03-26T13:24:03.768Z,47.47
2018-03-26T13:26:32.385Z,50.92
2018-03-26T13:29:01.212Z,47.77
2018-03-26T13:31:29.656Z,45.37
2018-03-26T13:33:57.912Z,46.80
2018-03-26T13:36:27.642Z,49.87
2018-03-26T13:38:56.293Z,49.10
2018-03-26T13:41:25.001Z,47.43
2018-03-26T13:43:54.304Z,43.63
2018-03-26T13:46:22.406Z,49.23
2018-03-26T13:48:50.452Z,46.77
2018-03-26T13:51:19.135Z,43.00
2018-03-26T13:53:48.440Z,45.23
2018-03-26T13:56:17.147Z,39.27
2018-03-26T13:58:46.055Z,44.00
2018-03-26T14:01:15.367Z,39.90
2018-03-26T14:03:43.894Z,41.57
2018-03-26T14:06:12.502Z,40.80
2018-03-26T14:08:53.770Z,45.20
2018-03-26T14:11:35.691Z,41.43
2018-03-26T14:14:16.868Z,41.77
2018-03-26T14:16:57.289Z,39.90
2018-03-26T14:19:25.987Z,42.80
2018-03-26T14:21:53.890Z,41.97
2018-03-26T14:24:23.085Z,40.93
2018-03-26T14:26:52.327Z,42.47
2018-03-26T14:29:21.313Z,40.07
2018-03-26T14:31:50.020Z,45.93
2018-03-26T14:34:19.625Z,40.67
2018-03-26T14:36:47.908Z,40.23
2018-03-26T14:39:16.685Z,40.43
2018-03-26T14:41:45.634Z,43.00
2018-03-26T14:44:14.618Z,44.87
2018-03-26T14:46:43.048Z,50.57
2018-03-26T14:49:12.005Z,46.93
2018-03-26T14:51:41.155Z,49.03
2018-03-26T14:54:10.388Z,52.07
2018-03-26T14:56:39.949Z,51.13
2018-03-26T14:59:08.872Z,51.83
2018-03-26T15:01:37.315Z,51.10
2018-03-26T15:04:06.201Z,54.97
2018-03-26T15:06:34.798Z,63.97
2018-03-26T15:09:03.410Z,56.20
2018-03-26T15:11:32.608Z,52.47
2018-03-26T15:14:02.220Z,48.40
2018-03-26T15:16:32.128Z,56.03
2018-03-26T15:19:01.760Z,55.37
2018-03-26T15:21:30.089Z,55.70
2018-03-26T15:23:58.864Z,54.83
2018-03-26T15:26:27.954Z,55.17
2018-03-26T15:28:56.560Z,61.33
2018-03-26T15:31:26.098Z,54.87
2018-03-26T15:33:54.755Z,54.90
2018-03-26T15:36:23.756Z,51.77
2018-03-26T15:38:52.206Z,57.50
2018-03-26T15:41:20.903Z,58.73
2018-03-26T15:43:49.295Z,61.80
2018-03-26T15:46:18.522Z,59.37
2018-03-26T15:48:46.641Z,64.00
2018-03-26T15:51:15.319Z,61.70
2018-03-26T15:53:44.313Z,65.60
2018-03-26T15:56:14.662Z,53.00
2018-03-26T15:58:43.953Z,61.97
2018-03-26T16:01:12.823Z,65.30
2018-03-26T16:03:41.664Z,57.63
2018-03-26T16:06:13.220Z,60.80
2018-03-26T16:08:43.517Z,55.93
2018-03-26T16:11:13.349Z,57.47
2018-03-26T16:13:42.090Z,60.83
2018-03-26T16:16:11.528Z,67.67
2018-03-26T16:18:41.003Z,60.40
2018-03-26T16:21:12.765Z,69.70
2018-03-26T16:23:41.249Z,68.97
2018-03-26T16:26:10.584Z,64.23
2018-03-26T16:28:40.153Z,77.90
2018-03-26T16:31:09.902Z,78.93
2018-03-26T16:33:39.164Z,67.83
2018-03-26T16:36:11.503Z,76.83
2018-03-26T16:38:41.078Z,67.27
2018-03-26T16:41:09.613Z,71.90
2018-03-26T16:43:38.442Z,67.23
2018-03-26T16:46:08.530Z,59.67
2018-03-26T16:48:38.844Z,64.20
2018-03-26T16:51:08.675Z,60.97
2018-03-26T16:53:38.263Z,57.87
2018-03-26T16:56:06.946Z,58.43
2018-03-26T16:58:37.480Z,54.93
2018-03-26T17:01:07.955Z,51.93
2018-03-26T17:03:36.938Z,57.50
2018-03-26T17:06:06.861Z,58.90
2018-03-26T17:08:35.594Z,69.57
2018-03-26T17:11:04.421Z,55.87
2018-03-26T17:13:33.892Z,56.37
2018-03-26T17:16:02.678Z,50.33
2018-03-26T17:18:31.497Z,57.63
2018-03-26T17:21:01.175Z,53.73
2018-03-26T17:26:03.167Z,50.13
2018-03-26T17:28:34.250Z,51.43
2018-03-26T17:31:04.762Z,52.13
2018-03-26T17:33:33.752Z,51.97
2018-03-26T17:36:02.768Z,49.40
2018-03-26T17:38:33.399Z,48.93
2018-03-26T17:41:05.994Z,50.00
2018-03-26T17:43:34.464Z,45.00
2018-03-26T17:46:03.392Z,51.70
2018-03-26T17:48:32.419Z,46.17
2018-03-26T17:51:02.410Z,50.33
2018-03-26T17:53:31.906Z,57.73
2018-03-26T17:56:01.289Z,49.53
2018-03-26T17:58:30.808Z,55.50
2018-03-26T18:01:01.339Z,49.30
2018-03-26T18:03:30.987Z,50.73
2018-03-26T18:06:00.502Z,47.80
2018-03-26T18:08:29.868Z,51.57
2018-03-26T18:11:00.482Z,43.60
2018-03-26T18:13:30.017Z,50.80
2018-03-26T18:18:36.575Z,54.97
2018-03-26T18:21:09.122Z,46.60
2018-03-26T18:23:39.102Z,47.97
2018-03-26T18:26:07.793Z,43.77
2018-03-26T18:28:36.577Z,44.77
2018-03-26T18:31:06.768Z,44.53
2018-03-26T18:33:36.917Z,50.40
2018-03-26T18:36:06.897Z,44.57
2018-03-26T18:38:36.108Z,45.50
2018-03-26T18:41:05.125Z,43.60
2018-03-26T18:43:34.498Z,50.67
2018-03-26T18:46:03.745Z,39.93
2018-03-26T18:48:32.714Z,46.80
2018-03-26T18:51:02.933Z,45.43
2018-03-26T18:53:31.835Z,42.57
2018-03-26T18:56:01.234Z,42.23
2018-03-26T18:58:32.955Z,41.30
2018-03-26T19:01:02.286Z,42.97
2018-03-26T19:03:30.972Z,42.20
2018-03-26T19:06:01.723Z,42.23
2018-03-26T19:08:30.594Z,38.73
2018-03-26T19:11:00.411Z,44.40
2018-03-26T19:13:29.424Z,37.20
2018-03-26T19:15:59.517Z,38.33
2018-03-26T19:18:29.443Z,43.57
2018-03-26T19:20:58.897Z,42.37
2018-03-26T19:23:29.188Z,43.87
2018-03-26T19:25:59.603Z,43.77
2018-03-26T19:28:28.882Z,39.87
2018-03-26T19:30:57.943Z,42.47
2018-03-26T19:33:27.243Z,44.67
2018-03-26T19:35:55.963Z,40.40
2018-03-26T19:38:24.722Z,48.40
2018-03-26T19:40:54.218Z,42.70
2018-03-26T19:43:24.071Z,45.87
2018-03-26T19:45:53.774Z,49.73
2018-03-26T19:48:23.710Z,44.73
2018-03-26T19:50:54.054Z,46.83
2018-03-26T19:53:22.670Z,50.90
2018-03-26T19:55:53.606Z,43.67
2018-03-26T19:58:24.556Z,45.70
2018-03-26T20:00:53.792Z,49.57
2018-03-26T20:03:23.160Z,47.93
2018-03-26T20:05:53.756Z,45.77
2018-03-26T20:08:24.146Z,49.43
2018-03-26T20:10:52.602Z,48.43
2018-03-26T20:13:22.816Z,48.33
2018-03-26T20:15:51.739Z,43.33
2018-03-26T20:18:21.809Z,43.77
2018-03-26T20:20:52.776Z,44.87
2018-03-26T20:23:22.142Z,42.37
2018-03-26T20:25:51.190Z,45.83
2018-03-26T20:28:20.759Z,46.70
2018-03-26T20:30:51.479Z,39.87
2018-03-26T20:33:22.723Z,48.23
2018-03-26T20:35:52.809Z,44.73
2018-03-26T20:38:21.299Z,49.70
2018-03-26T20:40:51.228Z,47.40
2018-03-26T20:43:20.480Z,42.37
2018-03-26T20:45:49.150Z,48.30
2018-03-26T20:48:19.067Z,43.23
2018-03-26T20:50:49.017Z,45.77
2018-03-26T20:53:19.088Z,45.77
2018-03-26T20:55:47.345Z,45.57
2018-03-26T20:58:16.802Z,45.60
2018-03-26T21:00:47.476Z,44.40
2018-03-26T21:03:18.636Z,58.40
2018-03-26T21:05:47.299Z,43.13
2018-03-26T21:08:15.672Z,49.73
2018-03-26T21:10:43.967Z,54.17
2018-03-26T21:13:12.828Z,50.70
2018-03-26T21:15:41.425Z,60.03
2018-03-26T21:18:10.341Z,51.57
2018-03-26T21:20:38.793Z,52.90
2018-03-26T21:23:08.049Z,55.17
2018-03-26T21:25:36.289Z,51.87
2018-03-26T21:28:04.549Z,55.63
2018-03-26T21:30:32.791Z,49.53
2018-03-26T21:33:01.456Z,58.43
2018-03-26T21:35:29.961Z,52.13
2018-03-26T21:37:57.525Z,58.93
2018-03-26T21:40:25.629Z,67.20
2018-03-26T21:42:54.203Z,58.07
2018-03-26T21:45:22.853Z,54.73
2018-03-26T21:47:50.396Z,58.80
2018-03-26T21:50:17.939Z,48.30
2018-03-26T21:52:45.531Z,57.80
2018-03-26T21:55:14.310Z,54.93
2018-03-26T21:57:42.799Z,54.03
2018-03-26T22:00:21.075Z,55.00
2018-03-26T22:02:48.657Z,52.87
2018-03-26T22:05:16.662Z,52.63
2018-03-26T22:07:44.212Z,53.63
2018-03-26T22:10:11.761Z,53.10
2018-03-26T22:12:39.356Z,57.17
2018-03-26T22:15:07.231Z,59.87
2018-03-26T22:17:34.786Z,62.73
2018-03-26T22:20:02.374Z,63.87
2018-03-26T22:22:29.987Z,55.00
2018-03-26T22:24:57.544Z,49.17
2018-03-26T22:27:25.286Z,51.00
2018-03-26T22:29:52.898Z,55.67
2018-03-26T22:32:20.499Z,60.90
2018-03-26T22:34:48.087Z,52.90
2018-03-26T22:37:15.685Z,49.83
2018-03-26T22:39:43.238Z,41.73
2018-03-26T22:42:10.823Z,41.07
2018-03-26T22:44:38.417Z,41.50
2018-03-26T22:47:06.859Z,42.87
2018-03-26T22:49:34.400Z,39.03
2018-03-26T22:52:02.699Z,40.10
2018-03-26T22:54:30.258Z,38.97
2018-03-26T22:56:57.866Z,39.30
2018-03-26T22:59:25.421Z,35.97
2018-03-26T23:01:53.327Z,40.17
2018-03-26T23:04:21.253Z,32.53
2018-03-26T23:06:49.243Z,37.93
2018-03-26T23:09:17.435Z,38.47
2018-03-26T23:11:45.032Z,38.47
2018-03-26T23:14:12.585Z,36.73
2018-03-26T23:16:40.172Z,45.17
2018-03-26T23:19:07.720Z,38.27
2018-03-26T23:21:35.780Z,37.57
2018-03-26T23:24:03.368Z,32.37
2018-03-26T23:26:30.960Z,36.07
2018-03-26T23:28:58.549Z,37.10
2018-03-26T23:31:26.832Z,32.13
2018-03-26T23:33:54.428Z,43.80
2018-03-26T23:36:22.029Z,43.07
2018-03-26T23:38:49.869Z,48.20
2018-03-26T23:41:17.472Z,55.33
2018-03-26T23:43:45.192Z,62.80
2018-03-26T23:46:12.736Z,52.83
2018-03-26T23:48:40.333Z,50.80
2018-03-26T23:51:08.755Z,51.83
2018-03-26T23:53:36.305Z,58.27
2018-03-26T23:56:03.900Z,51.90
2018-03-26T23:58:31.482Z,54.17
